Time;durP1;ratioP1;P1;durP2;ratioP2;P2;SDS_P1;SDS_P2;PMS_P1;PMS_P2;Temp;Humidity;BMP_temperature;BMP_pressure;BME280_temperature;BME280_humidity;BME280_pressure;Samples;Min_cycle;Max_cycle;Signal;HPM_P1;HPM_P2
2023/04/09 00:00:21;;;;;;;;;;;17.00;65.90;;;;;;5075719;28;888;-68
2023/04/09 00:02:47;;;;;;;;;;;17.00;66.00;;;;;;5073776;28;788;-68
2023/04/09 00:05:13;;;;;;;;;;;17.00;65.90;;;;;;5074333;28;1289;-68
2023/04/09 00:07:38;;;;;;;;;;;17.00;66.00;;;;;;5064919;28;943;-68
2023/04/09 00:10:04;;;;;;;;;;;17.00;66.00;;;;;;5066798;28;1918;-68
2023/04/09 00:12:30;;;;;;;;;;;17.00;66.00;;;;;;5074394;28;840;-68
2023/04/09 00:14:55;;;;;;;;;;;17.00;66.00;;;;;;5072908;28;812;-68
2023/04/09 00:17:21;;;;;;;;;;;16.90;65.90;;;;;;5072746;28;851;-68
2023/04/09 00:19:46;;;;;;;;;;;17.00;66.00;;;;;;5073519;28;894;-68
2023/04/09 00:22:12;;;;;;;;;;;16.90;65.90;;;;;;5074632;28;1021;-68
2023/04/09 00:24:38;;;;;;;;;;;16.90;66.00;;;;;;5075815;28;1350;-69
2023/04/09 00:27:03;;;;;;;;;;;17.00;66.00;;;;;;5074057;28;1283;-68
2023/04/09 00:29:28;;;;;;;;;;;17.00;66.00;;;;;;5071708;28;1205;-68
2023/04/09 00:31:54;;;;;;;;;;;16.90;66.00;;;;;;5073499;28;1902;-68
2023/04/09 00:34:20;;;;;;;;;;;16.90;66.00;;;;;;5076521;28;840;-68
2023/04/09 00:36:45;;;;;;;;;;;16.90;66.00;;;;;;5074382;28;1409;-69
2023/04/09 00:39:11;;;;;;;;;;;17.00;66.10;;;;;;5077008;28;1510;-68
2023/04/09 00:41:36;;;;;;;;;;;17.00;66.00;;;;;;5074077;28;1565;-68
2023/04/09 00:44:01;;;;;;;;;;;17.00;66.00;;;;;;5072400;28;1488;-69
2023/04/09 00:46:27;;;;;;;;;;;16.90;65.90;;;;;;5070846;28;1438;-69
2023/04/09 00:48:52;;;;;;;;;;;17.00;66.00;;;;;;5069473;28;1329;-68
2023/04/09 00:51:18;;;;;;;;;;;17.00;66.00;;;;;;5071544;28;2043;-69
2023/04/09 00:53:43;;;;;;;;;;;17.00;66.00;;;;;;5072928;28;1374;-68
2023/04/09 00:56:10;;;;;;;;;;;17.00;65.90;;;;;;5068821;28;1358;-68
2023/04/09 00:58:35;;;;;;;;;;;17.00;65.90;;;;;;5070963;28;1268;-69
2023/04/09 01:01:01;;;;;;;;;;;17.00;65.90;;;;;;5073402;28;819;-69
2023/04/09 01:03:26;;;;;;;;;;;17.00;65.90;;;;;;5072300;28;815;-70
2023/04/09 01:05:52;;;;;;;;;;;17.00;65.80;;;;;;5070456;28;1337;-69
2023/04/09 01:08:26;;;;;;;;;;;17.00;65.80;;;;;;5072918;28;784;-69
2023/04/09 01:11:18;;;;;;;;;;;17.00;65.80;;;;;;5069841;28;1902;-69
2023/04/09 01:13:58;;;;;;;;;;;17.00;65.80;;;;;;5072117;28;1060;-69
2023/04/09 01:16:24;;;;;;;;;;;17.00;65.80;;;;;;5073615;28;1286;-69
2023/04/09 01:18:57;;;;;;;;;;;17.00;65.90;;;;;;5068667;28;836;-68
2023/04/09 01:21:25;;;;;;;;;;;17.00;65.80;;;;;;5073853;28;840;-70
2023/04/09 01:23:54;;;;;;;;;;;17.00;66.60;;;;;;5073461;28;1285;-69
2023/04/09 01:26:38;;;;;;;;;;;17.00;65.80;;;;;;5072625;28;1263;-68
2023/04/09 01:29:03;;;;;;;;;;;17.00;65.80;;;;;;5071087;28;951;-68
2023/04/09 01:31:29;;;;;;;;;;;17.00;65.80;;;;;;5069633;28;1890;-68
2023/04/09 01:33:55;;;;;;;;;;;17.00;65.80;;;;;;5074304;28;1110;-68
2023/04/09 01:36:20;;;;;;;;;;;17.00;65.80;;;;;;5073733;28;1344;-68
2023/04/09 01:38:46;;;;;;;;;;;17.00;65.80;;;;;;5072804;28;1426;-68
2023/04/09 01:41:13;;;;;;;;;;;17.00;65.80;;;;;;5070290;28;855;-68
2023/04/09 01:43:39;;;;;;;;;;;17.00;65.80;;;;;;5071013;28;766;-68
2023/04/09 01:46:04;;;;;;;;;;;17.00;65.80;;;;;;5056458;28;1280;-68
2023/04/09 01:48:30;;;;;;;;;;;17.00;65.80;;;;;;5068204;28;945;-69
2023/04/09 01:50:56;;;;;;;;;;;17.00;65.90;;;;;;5071056;28;1909;-69
2023/04/09 01:53:21;;;;;;;;;;;17.00;65.80;;;;;;5073417;28;820;-69
2023/04/09 01:55:47;;;;;;;;;;;17.00;65.80;;;;;;5071256;28;1341;-69
2023/04/09 01:58:12;;;;;;;;;;;17.00;65.80;;;;;;5070241;28;831;-67
2023/04/09 02:00:38;;;;;;;;;;;17.00;65.80;;;;;;5074685;28;923;-67
2023/04/09 02:03:04;;;;;;;;;;;17.00;65.80;;;;;;5062331;28;916;-67
2023/04/09 02:05:30;;;;;;;;;;;17.00;65.80;;;;;;5076472;28;1364;-67
2023/04/09 02:07:56;;;;;;;;;;;17.00;65.80;;;;;;5071869;28;875;-68
2023/04/09 02:10:23;;;;;;;;;;;17.00;65.80;;;;;;5071755;28;1910;-69
2023/04/09 02:12:49;;;;;;;;;;;17.00;65.80;;;;;;5067782;28;1410;-70
2023/04/09 02:15:15;;;;;;;;;;;17.00;65.80;;;;;;5070907;28;1374;-68
2023/04/09 02:17:40;;;;;;;;;;;17.00;65.80;;;;;;5075312;28;874;-68
2023/04/09 02:20:06;;;;;;;;;;;17.00;65.70;;;;;;5071323;28;855;-68
2023/04/09 02:22:31;;;;;;;;;;;17.00;65.80;;;;;;5070665;28;1350;-68
2023/04/09 02:24:57;;;;;;;;;;;17.00;65.80;;;;;;5073953;28;1374;-69
2023/04/09 02:27:22;;;;;;;;;;;17.00;66.60;;;;;;5073662;28;971;-69
2023/04/09 02:29:48;;;;;;;;;;;17.00;65.70;;;;;;5074906;28;1909;-69
2023/04/09 02:32:13;;;;;;;;;;;17.00;65.70;;;;;;5069094;28;967;-69
2023/04/09 02:34:39;;;;;;;;;;;17.00;65.80;;;;;;5073741;28;979;-69
2023/04/09 02:37:04;;;;;;;;;;;17.00;65.80;;;;;;5072221;28;1252;-68
2023/04/09 02:39:30;;;;;;;;;;;17.00;65.70;;;;;;5073696;28;828;-69
2023/04/09 02:41:56;;;;;;;;;;;17.00;65.70;;;;;;5072602;28;807;-69
2023/04/09 02:44:22;;;;;;;;;;;17.00;65.70;;;;;;5074196;28;857;-69
2023/04/09 02:46:53;;;;;;;;;;;17.00;65.80;;;;;;5076046;28;1330;-69
2023/04/09 02:49:19;;;;;;;;;;;17.00;65.70;;;;;;5071702;28;1091;-68
2023/04/09 02:51:44;;;;;;;;;;;17.00;65.70;;;;;;5074741;28;1922;-68
2023/04/09 02:54:10;;;;;;;;;;;17.00;65.70;;;;;;5077936;28;890;-69
2023/04/09 02:56:35;;;;;;;;;;;17.00;65.70;;;;;;5076149;28;1296;-69
2023/04/09 02:59:01;;;;;;;;;;;17.00;65.80;;;;;;5075616;28;844;-68
2023/04/09 03:01:26;;;;;;;;;;;17.00;65.70;;;;;;5080317;28;839;-68
2023/04/09 03:03:51;;;;;;;;;;;17.00;65.80;;;;;;5073656;28;882;-67
2023/04/09 03:06:17;;;;;;;;;;;17.00;65.70;;;;;;5075782;28;1346;-68
2023/04/09 03:08:42;;;;;;;;;;;17.00;65.80;;;;;;5075038;28;928;-69
2023/04/09 03:11:08;;;;;;;;;;;17.00;65.70;;;;;;5074660;28;2005;-68
2023/04/09 03:13:33;;;;;;;;;;;17.00;65.70;;;;;;5060529;28;1970;-68
2023/04/09 03:15:59;;;;;;;;;;;17.00;65.70;;;;;;5077993;28;1357;-68
2023/04/09 03:18:24;;;;;;;;;;;17.00;65.80;;;;;;5077448;28;822;-68
2023/04/09 03:20:50;;;;;;;;;;;17.00;65.80;;;;;;5076486;28;950;-68
2023/04/09 03:23:15;;;;;;;;;;;17.00;65.80;;;;;;5074183;28;1333;-68
2023/04/09 03:25:41;;;;;;;;;;;17.00;65.70;;;;;;5072985;28;1369;-68
2023/04/09 03:28:06;;;;;;;;;;;17.00;65.80;;;;;;5076807;28;931;-68
2023/04/09 03:30:32;;;;;;;;;;;17.00;65.70;;;;;;5074959;28;1902;-68
2023/04/09 03:32:58;;;;;;;;;;;17.00;65.80;;;;;;5077256;28;773;-69
2023/04/09 03:35:23;;;;;;;;;;;17.00;65.70;;;;;;5078015;28;1521;-68
2023/04/09 03:37:49;;;;;;;;;;;17.00;65.80;;;;;;5074952;28;1319;-68
2023/04/09 03:40:14;;;;;;;;;;;17.00;65.80;;;;;;5072570;28;823;-68
2023/04/09 03:42:43;;;;;;;;;;;17.00;65.80;;;;;;5072769;28;792;-69
2023/04/09 03:45:08;;;;;;;;;;;17.00;65.80;;;;;;5072217;28;1250;-68
2023/04/09 03:47:34;;;;;;;;;;;17.00;65.80;;;;;;5065726;28;970;-69
2023/04/09 03:49:59;;;;;;;;;;;17.00;65.80;;;;;;5073986;28;1973;-69
2023/04/09 03:52:25;;;;;;;;;;;17.00;65.80;;;;;;5075073;28;875;-68
2023/04/09 03:54:50;;;;;;;;;;;17.00;65.80;;;;;;5072616;28;1053;-68
2023/04/09 03:57:16;;;;;;;;;;;17.00;65.80;;;;;;5073780;28;1195;-69
2023/04/09 03:59:41;;;;;;;;;;;17.00;65.80;;;;;;5070982;28;920;-69
2023/04/09 04:02:07;;;;;;;;;;;17.00;65.80;;;;;;5075718;28;1065;-69
2023/04/09 04:04:32;;;;;;;;;;;17.00;65.80;;;;;;5071907;28;861;-69
2023/04/09 04:06:57;;;;;;;;;;;17.00;65.80;;;;;;5071968;28;1279;-68
2023/04/09 04:09:23;;;;;;;;;;;17.00;65.80;;;;;;5071568;28;931;-68
2023/04/09 04:11:49;;;;;;;;;;;17.00;65.70;;;;;;5070000;28;1977;-68
2023/04/09 04:14:14;;;;;;;;;;;17.00;65.60;;;;;;5070588;28;839;-68
2023/04/09 04:16:40;;;;;;;;;;;17.10;65.60;;;;;;5070791;28;1658;-68
2023/04/09 04:19:05;;;;;;;;;;;17.10;65.60;;;;;;5075226;28;879;-69
2023/04/09 04:21:31;;;;;;;;;;;17.10;65.50;;;;;;5075356;28;808;-68
2023/04/09 04:23:56;;;;;;;;;;;17.10;65.30;;;;;;5073971;28;904;-68
2023/04/09 04:26:22;;;;;;;;;;;17.10;65.20;;;;;;5074984;28;1304;-68
2023/04/09 04:28:47;;;;;;;;;;;17.20;65.20;;;;;;5072761;28;914;-69
2023/04/09 04:31:13;;;;;;;;;;;17.20;65.10;;;;;;5083924;28;1975;-68
2023/04/09 04:33:39;;;;;;;;;;;17.20;64.90;;;;;;5077311;28;835;-67
2023/04/09 04:36:08;;;;;;;;;;;17.30;64.80;;;;;;5069428;28;1254;-68
2023/04/09 04:38:34;;;;;;;;;;;17.30;64.70;;;;;;5067106;28;1188;-67
2023/04/09 04:41:00;;;;;;;;;;;17.30;64.70;;;;;;5070315;28;936;-67
2023/04/09 04:43:25;;;;;;;;;;;17.30;64.60;;;;;;5076983;28;850;-68
2023/04/09 04:45:50;;;;;;;;;;;17.40;64.50;;;;;;5071762;28;1336;-67
2023/04/09 04:48:16;;;;;;;;;;;17.40;64.40;;;;;;5065674;28;889;-68
2023/04/09 04:50:41;;;;;;;;;;;17.40;64.40;;;;;;5071556;28;1902;-67
2023/04/09 04:53:07;;;;;;;;;;;17.40;64.30;;;;;;5074506;28;950;-68
2023/04/09 04:55:35;;;;;;;;;;;17.40;64.20;;;;;;5052287;28;1313;-69
2023/04/09 04:58:01;;;;;;;;;;;17.40;64.20;;;;;;5067668;28;891;-68
2023/04/09 05:00:26;;;;;;;;;;;17.50;64.20;;;;;;5072980;28;858;-68
2023/04/09 05:02:52;;;;;;;;;;;17.50;64.20;;;;;;5070950;28;1053;-69
2023/04/09 05:05:17;;;;;;;;;;;17.50;64.10;;;;;;5062252;28;1931;-65
2023/04/09 05:07:43;;;;;;;;;;;17.50;64.10;;;;;;5069232;28;1971;-65
2023/04/09 05:10:08;;;;;;;;;;;17.50;64.00;;;;;;5072710;28;1898;-65
2023/04/09 05:12:34;;;;;;;;;;;17.50;64.00;;;;;;5072251;28;994;-65
2023/04/09 05:14:59;;;;;;;;;;;17.50;64.00;;;;;;5071816;28;1268;-65
2023/04/09 05:17:25;;;;;;;;;;;17.50;64.00;;;;;;5071297;28;828;-65
2023/04/09 05:19:51;;;;;;;;;;;17.50;63.90;;;;;;5075171;28;815;-65
2023/04/09 05:22:17;;;;;;;;;;;17.50;63.90;;;;;;5074815;28;860;-66
2023/04/09 05:24:42;;;;;;;;;;;17.50;63.90;;;;;;5071509;28;917;-66
2023/04/09 05:27:07;;;;;;;;;;;17.50;63.90;;;;;;5077508;28;1364;-66
2023/04/09 05:29:33;;;;;;;;;;;17.50;63.90;;;;;;5074143;28;915;-66
2023/04/09 05:31:58;;;;;;;;;;;17.50;63.80;;;;;;5075656;28;1909;-66
2023/04/09 05:34:24;;;;;;;;;;;17.50;63.80;;;;;;5072846;28;799;-66
2023/04/09 05:36:49;;;;;;;;;;;17.50;63.90;;;;;;5071498;28;1488;-67
2023/04/09 05:39:15;;;;;;;;;;;17.50;63.90;;;;;;5069722;28;855;-66
2023/04/09 05:41:41;;;;;;;;;;;17.50;63.90;;;;;;5072090;28;967;-67
2023/04/09 05:44:06;;;;;;;;;;;17.50;63.80;;;;;;5069929;28;772;-66
2023/04/09 05:46:32;;;;;;;;;;;17.50;63.90;;;;;;5072441;28;1347;-67
2023/04/09 05:48:57;;;;;;;;;;;17.50;63.90;;;;;;5072838;28;868;-68
2023/04/09 05:51:23;;;;;;;;;;;17.50;63.90;;;;;;5071788;28;1963;-68
2023/04/09 05:53:48;;;;;;;;;;;17.50;64.00;;;;;;5072061;28;882;-69
2023/04/09 05:56:14;;;;;;;;;;;17.50;63.90;;;;;;5074574;28;1308;-69
2023/04/09 05:58:40;;;;;;;;;;;17.50;64.00;;;;;;5079926;28;777;-69
2023/04/09 06:01:05;;;;;;;;;;;17.50;64.00;;;;;;5076435;28;880;-71
2023/04/09 06:03:30;;;;;;;;;;;17.50;64.00;;;;;;5072682;28;915;-66
2023/04/09 06:05:56;;;;;;;;;;;17.50;64.10;;;;;;5066869;28;1247;-66
2023/04/09 06:08:21;;;;;;;;;;;17.50;64.00;;;;;;5068949;28;1061;-66
2023/04/09 06:10:47;;;;;;;;;;;17.50;64.00;;;;;;5071921;28;1914;-69
2023/04/09 06:13:12;;;;;;;;;;;17.50;64.10;;;;;;5069627;28;1227;-67
2023/04/09 06:15:38;;;;;;;;;;;17.50;64.10;;;;;;5069996;28;1342;-65
2023/04/09 06:18:03;;;;;;;;;;;17.50;64.10;;;;;;5072908;28;859;-67
2023/04/09 06:20:29;;;;;;;;;;;17.50;64.10;;;;;;5071358;28;832;-67
2023/04/09 06:22:54;;;;;;;;;;;17.50;64.20;;;;;;5073865;28;1346;-67
2023/04/09 06:25:20;;;;;;;;;;;17.50;64.20;;;;;;5071788;28;1342;-67
2023/04/09 06:27:45;;;;;;;;;;;17.40;64.20;;;;;;5068810;28;795;-67
2023/04/09 06:30:11;;;;;;;;;;;17.40;64.20;;;;;;5069508;28;1969;-67
2023/04/09 06:32:36;;;;;;;;;;;17.40;64.20;;;;;;5070387;28;874;-68
2023/04/09 06:35:02;;;;;;;;;;;17.40;64.30;;;;;;5074057;28;1373;-68
2023/04/09 06:37:28;;;;;;;;;;;17.40;64.30;;;;;;5074706;28;1379;-68
2023/04/09 06:39:53;;;;;;;;;;;17.40;64.30;;;;;;5073222;28;927;-69
2023/04/09 06:42:19;;;;;;;;;;;17.40;64.30;;;;;;5075609;28;913;-69
2023/04/09 06:44:44;;;;;;;;;;;17.40;64.40;;;;;;5074371;28;895;-68
2023/04/09 06:47:10;;;;;;;;;;;17.40;64.40;;;;;;5071441;28;1375;-70
2023/04/09 06:49:36;;;;;;;;;;;17.40;64.40;;;;;;5077223;28;852;-69
2023/04/09 06:52:02;;;;;;;;;;;17.40;64.40;;;;;;5072151;28;1957;-67
2023/04/09 06:54:28;;;;;;;;;;;17.40;64.40;;;;;;5069995;28;1981;-67
2023/04/09 06:56:53;;;;;;;;;;;17.40;64.40;;;;;;5076599;28;1425;-67
2023/04/09 06:59:19;;;;;;;;;;;17.40;64.40;;;;;;5073663;28;1996;-67
2023/04/09 07:01:44;;;;;;;;;;;17.40;64.50;;;;;;5077554;28;1437;-67
2023/04/09 07:04:10;;;;;;;;;;;17.40;64.50;;;;;;5073956;28;1345;-67
2023/04/09 07:06:35;;;;;;;;;;;17.40;64.50;;;;;;5076379;28;1281;-67
2023/04/09 07:09:01;;;;;;;;;;;17.40;64.50;;;;;;5077087;28;898;-68
2023/04/09 07:11:26;;;;;;;;;;;17.40;64.50;;;;;;5075824;28;1906;-67
2023/04/09 07:13:52;;;;;;;;;;;17.40;64.50;;;;;;5079272;28;796;-68
2023/04/09 07:16:17;;;;;;;;;;;17.40;64.50;;;;;;5076460;28;1233;-68
2023/04/09 07:18:43;;;;;;;;;;;17.40;64.60;;;;;;5075108;28;1014;-68
2023/04/09 07:21:08;;;;;;;;;;;17.40;64.60;;;;;;5074808;28;970;-66
2023/04/09 07:23:35;;;;;;;;;;;17.40;64.60;;;;;;5078468;28;1279;-66
2023/04/09 07:26:01;;;;;;;;;;;17.40;64.60;;;;;;5076768;28;1376;-66
2023/04/09 07:28:26;;;;;;;;;;;17.40;64.60;;;;;;5074316;28;1371;-66
2023/04/09 07:30:52;;;;;;;;;;;17.40;64.60;;;;;;5069092;28;1965;-67
2023/04/09 07:33:17;;;;;;;;;;;17.40;64.60;;;;;;5074860;28;823;-67
2023/04/09 07:35:43;;;;;;;;;;;17.40;64.50;;;;;;5069999;28;1345;-68
2023/04/09 07:38:08;;;;;;;;;;;17.40;64.50;;;;;;5074146;28;1345;-68
2023/04/09 07:40:35;;;;;;;;;;;17.40;64.40;;;;;;5077423;28;885;-68
2023/04/09 07:43:01;;;;;;;;;;;17.40;64.40;;;;;;5074227;28;874;-67
2023/04/09 07:45:26;;;;;;;;;;;17.40;64.40;;;;;;5074504;28;1402;-68
2023/04/09 07:47:52;;;;;;;;;;;17.40;64.40;;;;;;5075920;28;887;-67
2023/04/09 07:50:17;;;;;;;;;;;17.40;64.40;;;;;;5076628;28;1925;-67
2023/04/09 07:52:43;;;;;;;;;;;17.40;64.30;;;;;;5077268;28;839;-67
2023/04/09 07:55:08;;;;;;;;;;;17.40;64.30;;;;;;5074353;28;1268;-67
2023/04/09 07:57:34;;;;;;;;;;;17.50;64.30;;;;;;5072932;28;896;-67
2023/04/09 08:00:00;;;;;;;;;;;17.50;64.30;;;;;;5075295;28;985;-67
2023/04/09 08:02:25;;;;;;;;;;;17.50;64.30;;;;;;5074911;28;812;-68
2023/04/09 08:04:51;;;;;;;;;;;17.50;64.20;;;;;;5074062;28;934;-68
2023/04/09 08:07:16;;;;;;;;;;;17.50;64.20;;;;;;5073440;28;2273;-68
2023/04/09 08:09:42;;;;;;;;;;;17.50;64.20;;;;;;5073047;28;912;-67
2023/04/09 08:12:07;;;;;;;;;;;17.50;64.10;;;;;;5071904;28;1910;-69
2023/04/09 08:14:33;;;;;;;;;;;17.50;64.10;;;;;;5072083;28;820;-69
2023/04/09 08:16:58;;;;;;;;;;;17.50;64.10;;;;;;5070991;28;1303;-68
2023/04/09 08:19:24;;;;;;;;;;;17.50;64.10;;;;;;5070897;28;850;-70
2023/04/09 08:21:49;;;;;;;;;;;17.50;64.00;;;;;;5071914;28;1223;-69
2023/04/09 08:24:15;;;;;;;;;;;17.50;64.00;;;;;;5079942;28;1271;-67
2023/04/09 08:26:41;;;;;;;;;;;17.60;64.10;;;;;;5072910;28;2085;-69
2023/04/09 08:29:06;;;;;;;;;;;17.60;64.00;;;;;;5077545;28;886;-69
2023/04/09 08:31:32;;;;;;;;;;;17.60;64.10;;;;;;5061724;28;1963;-69
2023/04/09 08:33:57;;;;;;;;;;;17.60;64.00;;;;;;5074556;28;916;-69
2023/04/09 08:36:23;;;;;;;;;;;17.60;64.00;;;;;;5074072;28;1284;-69
2023/04/09 08:38:48;;;;;;;;;;;17.50;64.00;;;;;;5077253;28;1371;-70
2023/04/09 08:41:24;;;;;;;;;;;17.60;64.00;;;;;;5070055;28;807;-68
2023/04/09 08:43:50;;;;;;;;;;;17.60;64.00;;;;;;5074022;28;804;-68
2023/04/09 08:46:16;;;;;;;;;;;17.60;64.00;;;;;;5073364;28;1383;-67
2023/04/09 08:48:42;;;;;;;;;;;17.60;63.90;;;;;;5074059;28;967;-67
2023/04/09 08:51:11;;;;;;;;;;;17.60;63.90;;;;;;5074489;28;1979;-68
2023/04/09 08:53:36;;;;;;;;;;;17.60;63.90;;;;;;5065965;28;891;-67
2023/04/09 08:56:03;;;;;;;;;;;17.60;63.90;;;;;;5070388;28;1250;-68
2023/04/09 08:58:28;;;;;;;;;;;17.60;63.90;;;;;;5074375;28;1014;-68
2023/04/09 09:00:54;;;;;;;;;;;17.60;63.80;;;;;;5073768;28;876;-68
2023/04/09 09:03:20;;;;;;;;;;;17.60;63.80;;;;;;5071001;28;832;-68
2023/04/09 09:05:45;;;;;;;;;;;17.60;63.80;;;;;;5070384;28;1314;-69
2023/04/09 09:08:12;;;;;;;;;;;17.60;63.80;;;;;;5068920;28;938;-68
2023/04/09 09:10:38;;;;;;;;;;;17.60;63.80;;;;;;5070159;28;1914;-68
2023/04/09 09:13:21;;;;;;;;;;;17.60;63.80;;;;;;5073286;28;864;-68
2023/04/09 09:15:49;;;;;;;;;;;17.60;63.80;;;;;;5072411;28;1261;-68
2023/04/09 09:18:15;;;;;;;;;;;17.60;63.80;;;;;;5073455;28;1321;-67
2023/04/09 09:20:41;;;;;;;;;;;17.60;63.70;;;;;;5073171;28;1448;-68
2023/04/09 09:23:07;;;;;;;;;;;17.60;63.70;;;;;;5072242;28;1344;-68
2023/04/09 09:25:39;;;;;;;;;;;17.60;63.70;;;;;;5073297;28;1342;-69
2023/04/09 09:28:06;;;;;;;;;;;17.60;63.70;;;;;;5072287;28;1325;-69
2023/04/09 09:30:33;;;;;;;;;;;17.60;63.70;;;;;;5061512;28;1898;-68
2023/04/09 09:33:05;;;;;;;;;;;17.60;63.70;;;;;;5060089;28;1747;-67
2023/04/09 09:35:44;;;;;;;;;;;17.60;63.70;;;;;;5069719;28;1444;-68
2023/04/09 09:38:10;;;;;;;;;;;17.60;63.80;;;;;;5073709;28;1325;-67
2023/04/09 09:40:35;;;;;;;;;;;17.60;63.70;;;;;;5069252;28;1511;-67
2023/04/09 09:43:01;;;;;;;;;;;17.60;63.80;;;;;;5068740;28;1297;-67
2023/04/09 09:45:26;;;;;;;;;;;17.60;63.70;;;;;;5071188;28;1342;-67
2023/04/09 09:47:52;;;;;;;;;;;17.60;63.80;;;;;;5070603;28;1585;-67
2023/04/09 09:50:19;;;;;;;;;;;17.60;63.70;;;;;;5074249;28;1949;-67
2023/04/09 09:52:45;;;;;;;;;;;17.60;63.80;;;;;;5068799;28;1369;-67
2023/04/09 09:55:12;;;;;;;;;;;17.60;63.70;;;;;;5061326;28;1500;-67
2023/04/09 09:57:38;;;;;;;;;;;17.60;63.80;;;;;;5071391;28;1457;-67
2023/04/09 10:00:04;;;;;;;;;;;17.60;63.80;;;;;;5072087;28;1443;-67
2023/04/09 10:02:31;;;;;;;;;;;17.60;63.80;;;;;;5074769;28;2191;-68
2023/04/09 10:04:59;;;;;;;;;;;17.60;63.80;;;;;;5075013;28;1237;-68
2023/04/09 10:07:25;;;;;;;;;;;17.60;63.80;;;;;;5075103;28;1277;-68
2023/04/09 10:09:52;;;;;;;;;;;17.60;63.80;;;;;;5073895;28;807;-68
2023/04/09 10:12:18;;;;;;;;;;;17.60;63.80;;;;;;5077491;28;1938;-68
2023/04/09 10:14:43;;;;;;;;;;;17.60;63.80;;;;;;5076890;28;808;-68
2023/04/09 10:17:09;;;;;;;;;;;17.60;63.90;;;;;;5078663;28;1284;-68
2023/04/09 10:19:36;;;;;;;;;;;17.60;64.00;;;;;;5076796;28;832;-67
2023/04/09 10:22:04;;;;;;;;;;;17.60;63.90;;;;;;5076498;28;871;-68
2023/04/09 10:24:30;;;;;;;;;;;17.60;64.00;;;;;;5074764;28;1276;-67
2023/04/09 10:26:57;;;;;;;;;;;17.60;64.00;;;;;;5075107;28;1284;-68
2023/04/09 10:29:28;;;;;;;;;;;17.60;64.00;;;;;;5076061;28;1577;-68
2023/04/09 10:32:02;;;;;;;;;;;17.60;64.00;;;;;;5076753;28;1898;-68
2023/04/09 10:34:28;;;;;;;;;;;17.50;64.00;;;;;;5074765;28;1435;-67
2023/04/09 10:36:57;;;;;;;;;;;17.60;64.10;;;;;;5074139;28;1855;-68
2023/04/09 10:39:32;;;;;;;;;;;17.60;64.10;;;;;;5071950;28;1436;-67
2023/04/09 10:41:58;;;;;;;;;;;17.50;64.10;;;;;;5073002;28;1292;-68
2023/04/09 10:44:25;;;;;;;;;;;17.50;64.10;;;;;;5076343;28;1394;-68
2023/04/09 10:46:51;;;;;;;;;;;17.50;64.10;;;;;;5077079;28;1224;-67
2023/04/09 10:49:17;;;;;;;;;;;17.50;64.20;;;;;;5074538;28;948;-67
2023/04/09 10:51:50;;;;;;;;;;;17.50;64.20;;;;;;5080572;28;1914;-68
2023/04/09 10:54:34;;;;;;;;;;;17.50;64.20;;;;;;5076941;28;804;-68
2023/04/09 10:57:08;;;;;;;;;;;17.50;64.20;;;;;;5073718;28;1233;-68
2023/04/09 10:59:34;;;;;;;;;;;17.50;64.30;;;;;;5072778;28;954;-67
2023/04/09 11:02:00;;;;;;;;;;;17.50;64.30;;;;;;5072497;28;891;-68
2023/04/09 11:04:34;;;;;;;;;;;17.50;64.40;;;;;;5072603;28;2343;-67
2023/04/09 11:07:00;;;;;;;;;;;17.50;64.40;;;;;;5078337;28;1973;-67
2023/04/09 11:09:26;;;;;;;;;;;17.50;64.40;;;;;;5074998;28;1222;-67
2023/04/09 11:11:56;;;;;;;;;;;17.50;64.40;;;;;;5076785;28;1936;-68
2023/04/09 11:14:22;;;;;;;;;;;17.50;64.40;;;;;;5076872;28;1874;-68
2023/04/09 11:16:48;;;;;;;;;;;17.50;64.50;;;;;;5073769;28;1247;-68
2023/04/09 11:19:13;;;;;;;;;;;17.40;64.40;;;;;;5074776;28;1417;-67
2023/04/09 11:21:45;;;;;;;;;;;17.50;64.60;;;;;;5073608;28;1348;-67
2023/04/09 11:24:14;;;;;;;;;;;17.40;64.50;;;;;;5073142;28;1294;-66
2023/04/09 11:26:39;;;;;;;;;;;17.40;64.50;;;;;;5071222;28;1282;-68
2023/04/09 11:29:08;;;;;;;;;;;17.40;64.50;;;;;;5074157;28;1315;-67
2023/04/09 11:31:34;;;;;;;;;;;17.40;64.60;;;;;;5075328;28;1902;-68
2023/04/09 11:34:00;;;;;;;;;;;17.40;64.60;;;;;;5073357;28;1687;-69
2023/04/09 11:36:26;;;;;;;;;;;17.40;64.70;;;;;;5069240;28;1456;-67
2023/04/09 11:38:53;;;;;;;;;;;17.40;64.70;;;;;;5074592;28;1268;-67
2023/04/09 11:41:31;;;;;;;;;;;17.40;64.70;;;;;;5073028;28;1347;-68
2023/04/09 11:43:57;;;;;;;;;;;17.40;64.70;;;;;;5074342;28;1278;-69
2023/04/09 11:46:24;;;;;;;;;;;17.40;64.70;;;;;;5072638;28;1245;-68
2023/04/09 11:48:50;;;;;;;;;;;17.40;65.50;;;;;;5068313;28;1295;-68
2023/04/09 11:51:16;;;;;;;;;;;17.40;64.80;;;;;;5070898;28;1898;-68
2023/04/09 11:53:41;;;;;;;;;;;17.40;64.80;;;;;;5074598;28;843;-68
2023/04/09 11:56:07;;;;;;;;;;;17.40;64.80;;;;;;5075056;28;1270;-68
2023/04/09 11:58:32;;;;;;;;;;;17.40;64.80;;;;;;5077353;28;942;-68
2023/04/09 12:00:58;;;;;;;;;;;17.30;64.80;;;;;;5080219;28;1289;-68
2023/04/09 12:03:29;;;;;;;;;;;17.30;64.80;;;;;;5075459;28;1031;-68
2023/04/09 12:05:55;;;;;;;;;;;17.30;64.80;;;;;;5073508;28;1239;-68
2023/04/09 12:08:23;;;;;;;;;;;17.30;64.90;;;;;;5069740;28;788;-68
2023/04/09 12:10:50;;;;;;;;;;;17.30;64.90;;;;;;5078351;28;2203;-68
2023/04/09 12:13:16;;;;;;;;;;;17.30;65.70;;;;;;5071928;28;829;-68
2023/04/09 12:15:42;;;;;;;;;;;17.30;65.00;;;;;;5072373;28;1222;-68
2023/04/09 12:18:08;;;;;;;;;;;17.30;64.90;;;;;;5073185;28;880;-68
2023/04/09 12:20:34;;;;;;;;;;;17.30;65.00;;;;;;5072890;28;873;-68
2023/04/09 12:23:02;;;;;;;;;;;17.30;65.00;;;;;;5064563;28;1665;-69
2023/04/09 12:25:28;;;;;;;;;;;17.30;65.00;;;;;;5064942;28;1551;-69
2023/04/09 12:27:54;;;;;;;;;;;17.30;65.00;;;;;;5058794;28;1335;-68
2023/04/09 12:30:20;;;;;;;;;;;17.30;65.00;;;;;;5072781;28;1993;-69
2023/04/09 12:32:45;;;;;;;;;;;17.30;65.10;;;;;;5069537;28;2043;-69
2023/04/09 12:35:11;;;;;;;;;;;17.30;65.10;;;;;;5068970;28;2359;-69
2023/04/09 12:37:36;;;;;;;;;;;17.30;65.10;;;;;;5069839;28;1968;-69
2023/04/09 12:40:02;;;;;;;;;;;17.30;65.10;;;;;;5075842;28;1400;-69
2023/04/09 12:42:28;;;;;;;;;;;17.30;65.10;;;;;;5080426;28;1309;-69
2023/04/09 12:44:53;;;;;;;;;;;17.30;65.20;;;;;;5075603;28;855;-69
2023/04/09 12:47:19;;;;;;;;;;;17.30;65.90;;;;;;5078106;28;1716;-69
2023/04/09 12:49:45;;;;;;;;;;;17.30;65.20;;;;;;5076856;28;895;-69
2023/04/09 12:52:11;;;;;;;;;;;17.30;65.20;;;;;;5075470;28;1965;-69
2023/04/09 12:54:38;;;;;;;;;;;17.30;65.20;;;;;;5071666;28;859;-69
2023/04/09 12:57:04;;;;;;;;;;;17.20;65.20;;;;;;5075799;28;1277;-69
2023/04/09 12:59:30;;;;;;;;;;;17.20;65.20;;;;;;5078919;28;847;-70
2023/04/09 13:01:55;;;;;;;;;;;17.20;65.20;;;;;;5081744;28;867;-69
2023/04/09 13:04:21;;;;;;;;;;;17.20;65.30;;;;;;5074924;28;1013;-69
2023/04/09 13:06:47;;;;;;;;;;;17.20;65.30;;;;;;5070420;28;1372;-70
2023/04/09 13:09:12;;;;;;;;;;;17.20;65.30;;;;;;5071457;28;847;-69
2023/04/09 13:11:38;;;;;;;;;;;17.20;65.30;;;;;;5071846;28;1930;-69
2023/04/09 13:14:05;;;;;;;;;;;17.20;65.30;;;;;;5072561;28;1243;-69
2023/04/09 13:16:30;;;;;;;;;;;17.20;65.40;;;;;;5071719;28;1359;-69
2023/04/09 13:18:56;;;;;;;;;;;17.20;65.40;;;;;;5072345;28;2149;-70
2023/04/09 13:21:21;;;;;;;;;;;17.20;65.40;;;;;;5074644;28;816;-70
2023/04/09 13:23:47;;;;;;;;;;;17.20;65.40;;;;;;5070380;28;1031;-70
2023/04/09 13:26:12;;;;;;;;;;;17.20;65.40;;;;;;5072850;28;1395;-70
2023/04/09 13:28:37;;;;;;;;;;;17.20;65.40;;;;;;5074432;28;820;-70
2023/04/09 13:31:04;;;;;;;;;;;17.20;65.40;;;;;;5072192;28;1968;-69
2023/04/09 13:33:29;;;;;;;;;;;17.20;65.50;;;;;;5071189;28;958;-70
2023/04/09 13:35:56;;;;;;;;;;;17.20;65.50;;;;;;5071596;28;1263;-69
2023/04/09 13:38:21;;;;;;;;;;;17.20;65.50;;;;;;5071464;28;1462;-69
2023/04/09 13:40:47;;;;;;;;;;;17.20;65.50;;;;;;5069185;28;1353;-69
2023/04/09 13:43:12;;;;;;;;;;;17.20;65.50;;;;;;5071799;28;852;-70
2023/04/09 13:45:38;;;;;;;;;;;17.20;65.50;;;;;;5072308;28;1231;-70
2023/04/09 13:48:04;;;;;;;;;;;17.20;65.60;;;;;;5070879;28;886;-70
2023/04/09 13:50:30;;;;;;;;;;;17.20;65.60;;;;;;5073488;28;1906;-70
2023/04/09 13:52:55;;;;;;;;;;;17.10;65.50;;;;;;5068730;28;828;-70
2023/04/09 13:55:21;;;;;;;;;;;17.20;65.60;;;;;;5073127;28;1301;-70
2023/04/09 13:57:46;;;;;;;;;;;17.10;65.50;;;;;;5073415;28;1070;-69
2023/04/09 14:00:12;;;;;;;;;;;17.10;65.60;;;;;;5074942;28;957;-69
2023/04/09 14:02:37;;;;;;;;;;;17.20;65.50;;;;;;5074341;28;2135;-70
2023/04/09 14:05:03;;;;;;;;;;;17.20;65.20;;;;;;5065733;28;2066;-70
2023/04/09 14:07:29;;;;;;;;;;;17.20;65.60;;;;;;5069457;28;1920;-70
2023/04/09 14:09:55;;;;;;;;;;;17.20;65.40;;;;;;5067407;28;1938;-69
2023/04/09 14:12:20;;;;;;;;;;;17.30;64.90;;;;;;5069533;28;1902;-69
2023/04/09 14:14:46;;;;;;;;;;;17.30;64.50;;;;;;5068501;28;1429;-68
2023/04/09 14:17:11;;;;;;;;;;;17.30;64.10;;;;;;5074892;28;1426;-68
2023/04/09 14:19:37;;;;;;;;;;;17.30;63.20;;;;;;5073749;28;1440;-68
2023/04/09 14:22:05;;;;;;;;;;;17.30;63.00;;;;;;5070508;28;1410;-69
2023/04/09 14:24:30;;;;;;;;;;;17.30;62.40;;;;;;5069385;28;1569;-71
2023/04/09 14:26:55;;;;;;;;;;;17.30;61.80;;;;;;5072344;28;1345;-69
2023/04/09 14:29:21;;;;;;;;;;;17.30;60.50;;;;;;5072226;28;1574;-70